createdAt,value
2019-03-27T00:01:54.642Z,0.40
2019-03-27T00:04:24.641Z,0.40
2019-03-27T00:06:55.774Z,0.40
2019-03-27T00:09:27.678Z,0.50
2019-03-27T00:11:58.721Z,0.40
2019-03-27T00:14:32.379Z,0.40
2019-03-27T00:17:04.818Z,0.40
2019-03-27T00:19:36.780Z,0.40
2019-03-27T00:22:05.750Z,0.40
2019-03-27T00:24:36.598Z,0.40
2019-03-27T00:27:06.789Z,0.40
2019-03-27T00:29:37.138Z,0.40
2019-03-27T00:32:09.167Z,0.50
2019-03-27T00:34:40.639Z,0.40
2019-03-27T00:37:13.834Z,0.40
2019-03-27T00:39:49.557Z,0.50
2019-03-27T00:42:22.126Z,0.40
2019-03-27T00:44:54.059Z,0.50
2019-03-27T00:47:26.378Z,0.50
2019-03-27T00:49:55.470Z,0.50
2019-03-27T00:52:24.903Z,0.40
2019-03-27T00:54:54.909Z,0.40
2019-03-27T00:57:24.731Z,0.40
2019-03-27T00:59:56.441Z,0.40
2019-03-27T01:02:26.845Z,0.40
2019-03-27T01:04:56.410Z,0.40
2019-03-27T01:07:25.839Z,0.40
2019-03-27T01:09:57.068Z,0.40
2019-03-27T01:12:29.878Z,0.40
2019-03-27T01:15:05.643Z,0.30
2019-03-27T01:17:38.469Z,0.40
2019-03-27T01:20:10.898Z,0.40
2019-03-27T01:22:44.715Z,0.40
2019-03-27T01:25:17.565Z,0.30
2019-03-27T01:27:51.086Z,0.40
2019-03-27T01:30:26.562Z,0.40
2019-03-27T01:32:58.778Z,0.30
2019-03-27T01:35:35.625Z,0.40
2019-03-27T01:38:08.434Z,0.30
2019-03-27T01:40:40.411Z,0.30
2019-03-27T01:43:14.813Z,0.40
2019-03-27T01:45:53.228Z,0.40
2019-03-27T01:48:24.519Z,0.40
2019-03-27T01:50:57.990Z,0.30
2019-03-27T01:53:28.935Z,0.30
2019-03-27T01:56:00.970Z,0.30
2019-03-27T01:58:32.193Z,0.30
2019-03-27T02:01:04.466Z,0.30
2019-03-27T02:03:35.775Z,0.30
2019-03-27T02:06:06.380Z,0.30
2019-03-27T02:08:38.122Z,0.20
2019-03-27T02:11:09.571Z,0.20
2019-03-27T02:13:43.115Z,0.10
2019-03-27T02:16:14.985Z,0.10
2019-03-27T02:18:46.291Z,0.10
2019-03-27T02:21:18.456Z,0.10
2019-03-27T02:23:51.080Z,0.10
2019-03-27T02:26:23.849Z,0.10
2019-03-27T02:28:54.746Z,0.10
2019-03-27T02:31:24.776Z,0.10
2019-03-27T02:33:56.500Z,0.20
2019-03-27T02:36:29.276Z,0.20
2019-03-27T02:39:01.536Z,0.20
2019-03-27T02:41:34.758Z,0.20
2019-03-27T02:44:06.069Z,0.20
2019-03-27T02:46:37.865Z,0.20
2019-03-27T02:49:12.069Z,0.10
2019-03-27T02:51:43.488Z,0.10
2019-03-27T02:54:13.814Z,0.20
2019-03-27T02:56:44.650Z,0.20
2019-03-27T02:59:16.840Z,0.20
2019-03-27T03:01:48.254Z,0.20
2019-03-27T03:04:22.120Z,0.30
2019-03-27T03:06:55.988Z,0.30
2019-03-27T03:09:27.917Z,0.20
2019-03-27T03:12:02.865Z,0.30
2019-03-27T03:14:40.434Z,0.30
2019-03-27T03:17:14.264Z,0.30
2019-03-27T03:19:46.321Z,0.30
2019-03-27T03:22:18.674Z,0.30
2019-03-27T03:24:51.808Z,0.30
2019-03-27T03:27:24.641Z,0.30
2019-03-27T03:29:55.505Z,0.40
2019-03-27T03:32:26.101Z,0.40
2019-03-27T03:34:56.799Z,0.40
2019-03-27T03:37:28.065Z,0.40
2019-03-27T03:39:58.061Z,0.40
2019-03-27T03:42:31.557Z,0.40
2019-03-27T03:45:03.449Z,0.30
2019-03-27T03:47:37.111Z,0.30
2019-03-27T03:50:09.743Z,0.30
2019-03-27T03:52:40.464Z,0.30
2019-03-27T03:55:14.453Z,0.30
2019-03-27T03:57:46.328Z,0.30
2019-03-27T04:00:17.459Z,0.30
2019-03-27T04:02:51.716Z,0.30
2019-03-27T04:05:24.479Z,0.30
2019-03-27T04:07:56.823Z,0.30
2019-03-27T04:10:31.560Z,0.30
2019-03-27T04:13:02.202Z,0.30
2019-03-27T04:15:33.921Z,0.30
2019-03-27T04:18:06.302Z,0.30
2019-03-27T04:20:38.451Z,0.30
2019-03-27T04:23:08.968Z,0.30
2019-03-27T04:26:07.364Z,0.30
2019-03-27T04:28:15.497Z,0.30
2019-03-27T04:30:47.309Z,0.30
2019-03-27T04:33:18.129Z,0.30
2019-03-27T04:35:52.325Z,0.40
2019-03-27T04:38:24.076Z,0.30
2019-03-27T04:40:56.713Z,0.40
2019-03-27T04:43:28.475Z,0.40
2019-03-27T04:45:59.791Z,0.40
2019-03-27T04:48:31.959Z,0.40
2019-03-27T04:51:04.265Z,0.40
2019-03-27T04:53:38.440Z,0.40
2019-03-27T04:56:11.340Z,0.40
2019-03-27T04:58:45.323Z,0.50
2019-03-27T05:01:18.313Z,0.50
2019-03-27T05:03:47.373Z,0.50
2019-03-27T05:06:17.196Z,0.50
2019-03-27T05:08:48.456Z,0.50
2019-03-27T05:11:22.258Z,0.60
2019-03-27T05:13:54.180Z,0.60
2019-03-27T05:16:29.529Z,0.60
2019-03-27T05:19:02.456Z,0.60
2019-03-27T05:21:36.201Z,0.60
2019-03-27T05:24:08.760Z,0.60
2019-03-27T05:26:38.423Z,0.70
2019-03-27T05:29:10.269Z,0.70
2019-03-27T05:31:41.480Z,0.70
2019-03-27T05:34:12.211Z,0.70
2019-03-27T05:36:45.202Z,0.70
2019-03-27T05:39:16.979Z,0.70
2019-03-27T05:41:49.257Z,0.80
2019-03-27T05:44:21.993Z,0.70
2019-03-27T05:46:59.283Z,0.80
2019-03-27T05:49:32.244Z,0.80
2019-03-27T05:52:04.118Z,0.80
2019-03-27T05:54:38.054Z,0.80
2019-03-27T05:57:10.410Z,0.80
2019-03-27T05:59:40.367Z,0.80
2019-03-27T06:02:10.337Z,0.80
2019-03-27T06:04:41.497Z,0.80
2019-03-27T06:07:14.008Z,0.80
2019-03-27T06:09:45.879Z,0.90
2019-03-27T06:12:18.267Z,1.00
2019-03-27T06:14:52.453Z,1.10
2019-03-27T06:17:25.364Z,1.20
2019-03-27T06:19:58.526Z,1.30
2019-03-27T06:22:29.057Z,1.40
2019-03-27T06:25:00.011Z,1.50
2019-03-27T06:27:32.668Z,1.60
2019-03-27T06:30:04.716Z,1.70
2019-03-27T06:32:38.382Z,1.90
2019-03-27T06:35:11.533Z,1.90
2019-03-27T06:37:42.633Z,2.00
2019-03-27T06:40:13.738Z,2.00
2019-03-27T06:42:45.957Z,2.10
2019-03-27T06:45:17.378Z,2.30
2019-03-27T06:47:49.545Z,2.40
2019-03-27T06:50:20.832Z,2.60
2019-03-27T06:52:52.165Z,2.60
2019-03-27T06:55:25.067Z,2.80
2019-03-27T06:57:57.402Z,2.80
2019-03-27T07:00:36.927Z,2.90
2019-03-27T07:03:11.338Z,3.00
2019-03-27T07:05:44.010Z,3.00
2019-03-27T07:08:15.830Z,3.10
2019-03-27T07:10:50.071Z,3.30
2019-03-27T07:13:23.147Z,3.20
2019-03-27T07:15:55.166Z,3.20
2019-03-27T07:18:39.892Z,3.40
2019-03-27T07:21:04.135Z,3.30
2019-03-27T07:23:34.917Z,3.40
2019-03-27T07:26:06.762Z,3.50
2019-03-27T07:28:38.034Z,3.40
2019-03-27T07:31:07.596Z,3.50
2019-03-27T07:33:39.402Z,3.60
2019-03-27T07:36:11.598Z,3.60
2019-03-27T07:38:45.255Z,3.50
2019-03-27T07:41:15.157Z,3.50
2019-03-27T07:43:44.278Z,3.40
2019-03-27T07:46:13.618Z,3.50
2019-03-27T07:48:53.829Z,3.50
2019-03-27T07:51:17.805Z,3.50
2019-03-27T07:53:50.020Z,3.70
2019-03-27T07:56:22.553Z,3.80
2019-03-27T07:58:54.454Z,3.90
2019-03-27T08:01:26.910Z,4.00
2019-03-27T08:03:58.780Z,4.00
2019-03-27T08:06:29.175Z,4.20
2019-03-27T08:08:58.230Z,4.10
2019-03-27T08:11:27.994Z,4.30
2019-03-27T08:14:00.874Z,4.30
2019-03-27T08:16:34.284Z,4.50
2019-03-27T08:19:08.051Z,4.60
2019-03-27T08:21:40.038Z,4.60
2019-03-27T08:24:13.119Z,4.60
2019-03-27T08:26:48.955Z,4.60
2019-03-27T08:29:23.198Z,4.70
2019-03-27T08:31:55.657Z,5.10
2019-03-27T08:34:26.378Z,5.20
2019-03-27T08:36:57.244Z,5.20
2019-03-27T08:39:27.792Z,5.30
2019-03-27T08:42:00.041Z,5.50
2019-03-27T08:44:31.937Z,5.50
2019-03-27T08:47:02.891Z,5.70
2019-03-27T08:49:36.809Z,5.70
2019-03-27T08:52:09.033Z,5.70
2019-03-27T08:54:43.034Z,5.80
2019-03-27T08:57:12.844Z,6.00
2019-03-27T08:59:42.664Z,6.10
2019-03-27T09:02:14.965Z,5.90
2019-03-27T09:04:44.340Z,5.90
2019-03-27T09:07:15.083Z,6.00
2019-03-27T09:09:48.754Z,6.20
2019-03-27T09:12:21.140Z,6.20
2019-03-27T09:14:53.891Z,6.30
2019-03-27T09:17:26.569Z,6.30
2019-03-27T09:19:56.791Z,6.40
2019-03-27T09:22:27.828Z,6.50
2019-03-27T09:24:59.851Z,6.70
2019-03-27T09:27:31.426Z,6.70
2019-03-27T09:30:03.433Z,6.80
2019-03-27T09:32:34.727Z,6.90
2019-03-27T09:35:08.315Z,6.90
2019-03-27T09:37:39.168Z,6.80
2019-03-27T09:40:08.665Z,6.60
2019-03-27T09:42:38.726Z,6.70
2019-03-27T09:45:20.454Z,7.00
2019-03-27T09:47:53.832Z,6.80
2019-03-27T09:50:26.423Z,6.70
2019-03-27T09:53:01.136Z,6.70
2019-03-27T09:55:33.909Z,6.90
2019-03-27T09:58:05.094Z,7.00
2019-03-27T10:01:07.860Z,7.20
2019-03-27T10:03:39.209Z,7.00
2019-03-27T10:06:11.015Z,7.40
2019-03-27T10:08:42.769Z,7.40
2019-03-27T10:11:16.427Z,7.40
2019-03-27T10:13:49.200Z,7.30
2019-03-27T10:16:20.460Z,7.30
2019-03-27T10:18:51.868Z,7.40
2019-03-27T10:21:21.636Z,7.60
2019-03-27T10:23:55.246Z,7.70
2019-03-27T10:26:25.721Z,8.00
2019-03-27T10:28:56.606Z,7.90
2019-03-27T10:31:30.945Z,8.10
2019-03-27T10:34:02.345Z,8.20
2019-03-27T10:36:31.980Z,8.30
2019-03-27T10:39:02.165Z,8.30
2019-03-27T10:41:33.624Z,8.40
2019-03-27T10:44:05.009Z,8.60
2019-03-27T10:46:37.989Z,8.60
2019-03-27T10:49:08.772Z,8.50
2019-03-27T10:51:39.633Z,8.60
2019-03-27T10:54:11.765Z,8.70
2019-03-27T10:56:42.869Z,8.80
2019-03-27T10:59:13.897Z,8.60
2019-03-27T11:01:46.188Z,8.60
2019-03-27T11:04:19.256Z,8.60
2019-03-27T11:06:50.688Z,8.90
2019-03-27T11:09:19.920Z,8.60
2019-03-27T11:11:49.821Z,8.80
2019-03-27T11:14:22.539Z,8.70
2019-03-27T11:16:53.193Z,8.70
2019-03-27T11:19:23.740Z,8.70
2019-03-27T11:21:55.308Z,8.70
2019-03-27T11:24:31.809Z,8.30
2019-03-27T11:27:03.173Z,8.60
2019-03-27T11:29:35.400Z,8.70
2019-03-27T11:32:05.847Z,8.70
2019-03-27T11:34:36.465Z,8.80
2019-03-27T11:37:10.511Z,8.90
2019-03-27T11:39:47.634Z,9.10
2019-03-27T11:42:22.649Z,9.20
2019-03-27T11:44:56.188Z,9.40
2019-03-27T11:47:29.533Z,9.20
2019-03-27T11:50:00.619Z,9.00
2019-03-27T11:52:30.315Z,9.10
2019-03-27T11:54:59.745Z,9.30
2019-03-27T11:57:30.325Z,9.40
2019-03-27T12:00:00.633Z,9.50
2019-03-27T12:02:30.322Z,9.60
2019-03-27T12:05:03.486Z,9.10
2019-03-27T12:07:37.841Z,9.10
2019-03-27T12:10:11.777Z,9.20
2019-03-27T12:12:48.200Z,9.10
2019-03-27T12:15:22.833Z,9.00
2019-03-27T12:17:56.585Z,9.20
2019-03-27T12:20:28.933Z,9.20
2019-03-27T12:22:59.772Z,9.40
2019-03-27T12:25:32.960Z,9.60
2019-03-27T12:28:05.845Z,9.60
2019-03-27T12:30:38.089Z,9.60
2019-03-27T12:33:10.013Z,9.40
2019-03-27T12:35:39.858Z,9.60
2019-03-27T12:38:10.873Z,9.60
2019-03-27T12:40:42.866Z,9.40
2019-03-27T12:43:15.496Z,9.60
2019-03-27T12:45:47.125Z,9.80
2019-03-27T12:48:18.547Z,9.80
2019-03-27T12:50:48.693Z,9.70
2019-03-27T12:53:21.449Z,9.70
2019-03-27T12:55:52.816Z,9.70
2019-03-27T12:58:29.302Z,9.60
2019-03-27T13:01:01.005Z,9.70
2019-03-27T13:03:36.825Z,9.70
2019-03-27T13:06:06.646Z,9.60
2019-03-27T13:08:37.933Z,9.60
2019-03-27T13:11:11.313Z,10.00
2019-03-27T13:13:42.056Z,10.00
2019-03-27T13:16:15.905Z,10.50
2019-03-27T13:18:48.597Z,10.70
2019-03-27T13:21:26.773Z,11.10
2019-03-27T13:23:55.445Z,10.80
2019-03-27T13:26:25.889Z,10.60
2019-03-27T13:28:54.810Z,10.90
2019-03-27T13:31:25.119Z,11.20
2019-03-27T13:33:57.963Z,10.70
2019-03-27T13:36:30.205Z,11.00
2019-03-27T13:39:00.045Z,10.50
2019-03-27T13:41:29.856Z,10.40
2019-03-27T13:44:02.922Z,10.60
2019-03-27T13:46:34.743Z,10.50
2019-03-27T13:49:07.205Z,10.70
2019-03-27T13:51:41.277Z,10.40
2019-03-27T13:54:12.470Z,10.60
2019-03-27T13:56:41.396Z,11.10
2019-03-27T13:59:10.785Z,11.00
2019-03-27T14:01:42.728Z,11.10
2019-03-27T14:04:13.873Z,11.20
2019-03-27T14:06:48.104Z,11.40
2019-03-27T14:09:20.888Z,11.00
2019-03-27T14:11:53.648Z,10.70
2019-03-27T14:14:24.905Z,11.00
2019-03-27T14:16:56.693Z,11.40
2019-03-27T14:19:31.127Z,11.50
2019-03-27T14:22:02.868Z,11.50
2019-03-27T14:24:37.081Z,11.50
2019-03-27T14:27:08.061Z,11.20
2019-03-27T14:29:39.253Z,10.80
2019-03-27T14:32:13.042Z,10.90
2019-03-27T14:34:45.644Z,11.20
2019-03-27T14:37:20.900Z,11.40
2019-03-27T14:39:51.887Z,11.50
2019-03-27T14:42:25.684Z,11.60
2019-03-27T14:44:56.441Z,11.80
2019-03-27T14:47:27.730Z,11.80
2019-03-27T14:49:57.044Z,11.50
2019-03-27T14:52:27.548Z,11.50
2019-03-27T14:54:57.181Z,11.50
2019-03-27T14:57:28.393Z,11.40
2019-03-27T15:00:03.221Z,11.10
2019-03-27T15:02:35.086Z,11.50
2019-03-27T15:05:06.679Z,11.50
2019-03-27T15:07:37.258Z,11.70
2019-03-27T15:10:07.364Z,11.90
2019-03-27T15:12:36.782Z,11.80
2019-03-27T15:15:06.705Z,11.60
2019-03-27T15:17:37.546Z,11.50
2019-03-27T15:20:13.426Z,11.40
2019-03-27T15:22:44.597Z,11.40
2019-03-27T15:25:18.732Z,11.00
2019-03-27T15:27:50.152Z,10.50
2019-03-27T15:30:20.781Z,10.70
2019-03-27T15:32:50.622Z,11.00
2019-03-27T15:35:20.878Z,11.00
2019-03-27T15:37:54.705Z,11.00
2019-03-27T15:40:38.248Z,11.10
2019-03-27T15:43:10.029Z,11.10
2019-03-27T15:45:42.076Z,11.00
2019-03-27T15:48:17.288Z,11.00
2019-03-27T15:50:58.490Z,11.20
2019-03-27T15:53:29.040Z,11.20
2019-03-27T15:56:00.812Z,11.10
2019-03-27T15:58:32.460Z,11.20
2019-03-27T16:01:04.500Z,11.10
2019-03-27T16:03:36.684Z,11.00
2019-03-27T16:06:08.782Z,11.00
2019-03-27T16:08:46.161Z,10.80
2019-03-27T16:11:16.905Z,10.70
2019-03-27T16:13:48.336Z,10.50
2019-03-27T16:16:19.881Z,10.50
2019-03-27T16:18:51.121Z,10.40
2019-03-27T16:21:24.552Z,10.30
2019-03-27T16:24:06.364Z,10.10
2019-03-27T16:26:36.240Z,9.90
2019-03-27T16:29:08.916Z,9.80
2019-03-27T16:31:41.002Z,9.70
2019-03-27T16:34:10.018Z,9.60
2019-03-27T16:36:40.280Z,9.50
2019-03-27T16:39:12.349Z,9.40
2019-03-27T16:41:44.178Z,9.30
2019-03-27T16:44:15.331Z,9.20
2019-03-27T16:46:50.100Z,9.10
2019-03-27T16:49:23.307Z,8.90
2019-03-27T16:51:56.446Z,8.80
2019-03-27T16:54:26.516Z,8.80
2019-03-27T16:56:57.285Z,8.50
2019-03-27T16:59:29.138Z,8.50
2019-03-27T17:02:00.366Z,8.40
2019-03-27T17:04:32.711Z,8.20
2019-03-27T17:07:05.334Z,8.10
2019-03-27T17:09:37.645Z,7.80
2019-03-27T17:12:11.953Z,7.50
2019-03-27T17:14:43.025Z,7.60
2019-03-27T17:17:15.636Z,7.70
2019-03-27T17:19:49.532Z,7.60
2019-03-27T17:22:22.637Z,7.50
2019-03-27T17:24:56.129Z,7.50
2019-03-27T17:27:28.709Z,7.30
2019-03-27T17:29:59.781Z,7.30
2019-03-27T17:32:31.089Z,7.20
2019-03-27T17:35:04.350Z,7.00
2019-03-27T17:37:37.252Z,7.00
2019-03-27T17:40:11.437Z,6.90
2019-03-27T17:42:44.778Z,6.70
2019-03-27T17:45:15.837Z,6.60
2019-03-27T17:47:45.324Z,6.50
2019-03-27T17:50:20.629Z,6.20
2019-03-27T17:52:53.459Z,6.10
2019-03-27T17:55:26.448Z,5.80
2019-03-27T17:58:02.501Z,5.70
2019-03-27T18:00:42.813Z,5.60
2019-03-27T18:03:13.196Z,5.70
2019-03-27T18:05:43.132Z,5.60
2019-03-27T18:08:13.199Z,5.50
2019-03-27T18:10:45.869Z,5.30
2019-03-27T18:13:17.342Z,5.40
2019-03-27T18:15:50.214Z,5.30
2019-03-27T18:18:21.999Z,5.30
2019-03-27T18:20:52.556Z,5.30
2019-03-27T18:23:22.177Z,5.20
2019-03-27T18:25:54.400Z,5.10
2019-03-27T18:28:27.630Z,5.10
2019-03-27T18:30:56.858Z,5.00
2019-03-27T18:33:27.285Z,4.80
2019-03-27T18:36:00.044Z,4.80
2019-03-27T18:38:34.374Z,4.70
2019-03-27T18:41:06.106Z,4.70
2019-03-27T18:43:39.891Z,4.70
2019-03-27T18:46:11.155Z,4.70
2019-03-27T18:48:46.452Z,4.60
2019-03-27T18:51:20.634Z,4.60
2019-03-27T18:53:59.982Z,4.50
2019-03-27T18:56:29.483Z,4.50
2019-03-27T18:59:01.813Z,4.40
2019-03-27T19:01:34.653Z,4.40
2019-03-27T19:04:09.450Z,4.30
2019-03-27T19:06:40.864Z,4.10
2019-03-27T19:09:11.397Z,4.00
2019-03-27T19:11:42.603Z,4.10
2019-03-27T19:14:15.285Z,3.90
2019-03-27T19:16:46.423Z,4.00
2019-03-27T19:19:18.505Z,3.90
2019-03-27T19:21:47.826Z,3.90
2019-03-27T19:24:18.924Z,3.80
2019-03-27T19:26:49.156Z,3.80
2019-03-27T19:29:20.281Z,3.80
2019-03-27T19:31:58.313Z,3.70
2019-03-27T19:34:32.850Z,3.60
2019-03-27T19:37:05.065Z,3.60
2019-03-27T19:39:36.734Z,3.50
2019-03-27T19:42:08.935Z,3.50
2019-03-27T19:44:40.093Z,3.50
2019-03-27T19:47:12.329Z,3.40
2019-03-27T19:49:48.281Z,3.40
2019-03-27T19:52:18.221Z,3.20
2019-03-27T19:54:48.506Z,3.10
2019-03-27T19:57:20.558Z,3.00
2019-03-27T19:59:51.757Z,3.00
2019-03-27T20:02:23.593Z,3.00
2019-03-27T20:04:56.345Z,2.90
2019-03-27T20:07:35.866Z,2.80
2019-03-27T20:10:04.077Z,2.80
2019-03-27T20:12:35.828Z,2.80
2019-03-27T20:15:12.651Z,2.80
2019-03-27T20:17:46.340Z,2.80
2019-03-27T20:20:18.255Z,2.70
2019-03-27T20:22:50.648Z,2.70
2019-03-27T20:25:22.107Z,2.60
2019-03-27T20:27:57.831Z,2.50
2019-03-27T20:30:29.680Z,2.50
2019-03-27T20:33:04.694Z,2.50
2019-03-27T20:35:36.975Z,2.40
2019-03-27T20:38:07.977Z,2.40
2019-03-27T20:40:40.825Z,2.20
2019-03-27T20:43:12.417Z,2.20
2019-03-27T20:45:45.048Z,2.20
2019-03-27T20:48:18.859Z,2.20
2019-03-27T20:50:54.109Z,2.10
2019-03-27T20:53:24.790Z,2.00
2019-03-27T20:55:57.544Z,2.10
2019-03-27T20:58:32.857Z,2.10
2019-03-27T21:01:05.022Z,2.10
2019-03-27T21:03:36.697Z,2.00
2019-03-27T21:06:09.026Z,1.90
2019-03-27T21:08:37.964Z,2.00
2019-03-27T21:11:10.878Z,2.00
2019-03-27T21:13:42.058Z,2.00
2019-03-27T21:16:13.207Z,2.00
2019-03-27T21:18:46.526Z,2.00
2019-03-27T21:21:19.213Z,1.90
2019-03-27T21:23:55.888Z,1.80
2019-03-27T21:26:31.406Z,1.90
2019-03-27T21:29:03.351Z,1.90
2019-03-27T21:31:34.102Z,1.80
2019-03-27T21:34:04.827Z,1.80
2019-03-27T21:36:35.958Z,1.80
2019-03-27T21:39:07.280Z,1.80
2019-03-27T21:41:40.053Z,1.60
2019-03-27T21:44:10.785Z,1.70
2019-03-27T21:46:40.893Z,1.80
2019-03-27T21:49:13.750Z,1.80
2019-03-27T21:51:45.949Z,1.70
2019-03-27T21:54:15.960Z,1.60
2019-03-27T21:56:44.945Z,1.60
2019-03-27T21:59:15.336Z,1.60
2019-03-27T22:01:47.887Z,1.70
2019-03-27T22:04:18.834Z,1.70
2019-03-27T22:06:49.885Z,1.60
2019-03-27T22:09:22.193Z,1.60
2019-03-27T22:11:56.233Z,1.60
2019-03-27T22:14:30.037Z,1.40
2019-03-27T22:17:01.876Z,1.50
2019-03-27T22:19:32.749Z,1.50
2019-03-27T22:22:04.958Z,1.40
2019-03-27T22:24:39.764Z,1.50
2019-03-27T22:27:12.057Z,1.40
2019-03-27T22:29:44.723Z,1.20
2019-03-27T22:32:17.008Z,1.40
2019-03-27T22:35:11.312Z,1.50
2019-03-27T22:37:43.409Z,1.50
2019-03-27T22:40:16.061Z,1.40
2019-03-27T22:42:49.974Z,1.30
2019-03-27T22:45:21.526Z,1.20
2019-03-27T22:47:56.657Z,1.30
2019-03-27T22:50:31.929Z,1.30
2019-03-27T22:53:05.704Z,1.20
2019-03-27T22:55:49.008Z,1.10
2019-03-27T22:58:12.900Z,1.10
2019-03-27T23:00:47.271Z,1.10
2019-03-27T23:03:18.474Z,1.10
2019-03-27T23:05:50.669Z,1.00
2019-03-27T23:08:21.870Z,1.10
2019-03-27T23:10:53.737Z,1.10
2019-03-27T23:13:24.900Z,1.00
2019-03-27T23:15:57.289Z,0.90
2019-03-27T23:18:28.970Z,0.90
2019-03-27T23:21:02.878Z,0.90
2019-03-27T23:23:35.309Z,0.80
2019-03-27T23:26:06.781Z,0.80
2019-03-27T23:28:37.113Z,0.80
2019-03-27T23:31:06.125Z,0.70
2019-03-27T23:33:35.255Z,0.80
2019-03-27T23:36:05.170Z,0.70
2019-03-27T23:38:37.110Z,0.70
2019-03-27T23:41:07.258Z,0.70
2019-03-27T23:43:39.051Z,0.60
2019-03-27T23:46:10.266Z,0.60
2019-03-27T23:48:42.340Z,0.60
2019-03-27T23:51:12.188Z,0.60
2019-03-27T23:53:44.635Z,0.60
2019-03-27T23:56:20.652Z,0.60
2019-03-27T23:58:53.066Z,0.50
